sensor_id;sensor_type;location;lat;lon;timestamp;temperature;humidity
27384;DHT22;14851;51.166;4.760;2023-07-13T00:00:46;17.50;99.90
27384;DHT22;14851;51.166;4.760;2023-07-13T00:03:12;17.50;99.90
27384;DHT22;14851;51.166;4.760;2023-07-13T00:05:41;17.40;99.90
27384;DHT22;14851;51.166;4.760;2023-07-13T00:08:08;17.40;99.90
27384;DHT22;14851;51.166;4.760;2023-07-13T00:10:43;17.40;99.90
27384;DHT22;14851;51.166;4.760;2023-07-13T00:13:11;17.40;99.90
27384;DHT22;14851;51.166;4.760;2023-07-13T00:15:37;17.30;99.90
27384;DHT22;14851;51.166;4.760;2023-07-13T00:18:02;17.30;99.90
27384;DHT22;14851;51.166;4.760;2023-07-13T00:20:29;17.30;99.90
27384;DHT22;14851;51.166;4.760;2023-07-13T00:22:54;17.20;99.90
27384;DHT22;14851;51.166;4.760;2023-07-13T00:25:21;17.20;99.90
27384;DHT22;14851;51.166;4.760;2023-07-13T00:27:50;17.20;99.90
27384;DHT22;14851;51.166;4.760;2023-07-13T00:30:17;17.10;99.90
27384;DHT22;14851;51.166;4.760;2023-07-13T00:32:44;17.20;99.90
27384;DHT22;14851;51.166;4.760;2023-07-13T00:35:14;17.10;99.90
27384;DHT22;14851;51.166;4.760;2023-07-13T00:37:40;17.10;99.90
27384;DHT22;14851;51.166;4.760;2023-07-13T00:40:09;17.10;99.90
27384;DHT22;14851;51.166;4.760;2023-07-13T00:42:36;17.10;99.90
27384;DHT22;14851;51.166;4.760;2023-07-13T00:47:52;17.10;99.90
27384;DHT22;14851;51.166;4.760;2023-07-13T00:50:19;17.00;99.90
27384;DHT22;14851;51.166;4.760;2023-07-13T00:52:50;17.00;99.90
27384;DHT22;14851;51.166;4.760;2023-07-13T00:55:19;17.00;99.90
27384;DHT22;14851;51.166;4.760;2023-07-13T00:57:47;17.00;99.90
27384;DHT22;14851;51.166;4.760;2023-07-13T01:00:13;16.90;99.90
27384;DHT22;14851;51.166;4.760;2023-07-13T01:02:42;16.90;99.90
27384;DHT22;14851;51.166;4.760;2023-07-13T01:05:14;16.90;99.90
27384;DHT22;14851;51.166;4.760;2023-07-13T01:07:41;16.90;99.90
27384;DHT22;14851;51.166;4.760;2023-07-13T01:10:10;16.80;99.90
27384;DHT22;14851;51.166;4.760;2023-07-13T01:12:39;16.70;99.90
27384;DHT22;14851;51.166;4.760;2023-07-13T01:15:39;16.70;99.90
27384;DHT22;14851;51.166;4.760;2023-07-13T01:18:09;16.70;99.90
27384;DHT22;14851;51.166;4.760;2023-07-13T01:20:37;16.60;99.90
27384;DHT22;14851;51.166;4.760;2023-07-13T01:23:07;16.60;99.90
27384;DHT22;14851;51.166;4.760;2023-07-13T01:25:36;16.60;99.90
27384;DHT22;14851;51.166;4.760;2023-07-13T01:28:04;16.60;99.90
27384;DHT22;14851;51.166;4.760;2023-07-13T01:30:31;16.60;99.90
27384;DHT22;14851;51.166;4.760;2023-07-13T01:32:58;16.60;99.90
27384;DHT22;14851;51.166;4.760;2023-07-13T01:35:25;16.60;99.90
27384;DHT22;14851;51.166;4.760;2023-07-13T01:37:53;16.60;99.90
27384;DHT22;14851;51.166;4.760;2023-07-13T01:40:19;16.60;99.90
27384;DHT22;14851;51.166;4.760;2023-07-13T01:42:45;16.50;99.90
27384;DHT22;14851;51.166;4.760;2023-07-13T01:45:11;16.50;99.90
27384;DHT22;14851;51.166;4.760;2023-07-13T01:47:37;16.50;99.90
27384;DHT22;14851;51.166;4.760;2023-07-13T01:50:03;16.50;99.90
27384;DHT22;14851;51.166;4.760;2023-07-13T01:52:30;16.40;99.90
27384;DHT22;14851;51.166;4.760;2023-07-13T01:54:57;16.40;99.90
27384;DHT22;14851;51.166;4.760;2023-07-13T01:57:23;16.40;99.90
27384;DHT22;14851;51.166;4.760;2023-07-13T01:59:52;16.40;99.90
27384;DHT22;14851;51.166;4.760;2023-07-13T02:02:18;16.30;99.90
27384;DHT22;14851;51.166;4.760;2023-07-13T02:04:46;16.30;99.90
27384;DHT22;14851;51.166;4.760;2023-07-13T02:07:13;16.30;99.90
27384;DHT22;14851;51.166;4.760;2023-07-13T02:09:40;16.20;99.90
27384;DHT22;14851;51.166;4.760;2023-07-13T02:12:08;16.20;99.90
27384;DHT22;14851;51.166;4.760;2023-07-13T02:14:34;16.20;99.90
27384;DHT22;14851;51.166;4.760;2023-07-13T02:17:00;16.30;99.90
27384;DHT22;14851;51.166;4.760;2023-07-13T02:19:26;16.30;99.90
27384;DHT22;14851;51.166;4.760;2023-07-13T02:21:52;16.30;99.90
27384;DHT22;14851;51.166;4.760;2023-07-13T02:24:18;16.30;99.90
27384;DHT22;14851;51.166;4.760;2023-07-13T02:26:46;16.30;99.90
27384;DHT22;14851;51.166;4.760;2023-07-13T02:29:13;16.40;99.90
27384;DHT22;14851;51.166;4.760;2023-07-13T02:31:46;16.30;99.90
27384;DHT22;14851;51.166;4.760;2023-07-13T02:34:12;16.30;99.90
27384;DHT22;14851;51.166;4.760;2023-07-13T02:36:40;16.30;99.90
27384;DHT22;14851;51.166;4.760;2023-07-13T02:39:09;16.40;99.90
27384;DHT22;14851;51.166;4.760;2023-07-13T02:41:37;16.40;99.90
27384;DHT22;14851;51.166;4.760;2023-07-13T02:44:03;16.40;99.90
27384;DHT22;14851;51.166;4.760;2023-07-13T02:46:30;16.40;99.90
27384;DHT22;14851;51.166;4.760;2023-07-13T02:49:00;16.30;99.90
27384;DHT22;14851;51.166;4.760;2023-07-13T02:51:28;16.30;99.90
27384;DHT22;14851;51.166;4.760;2023-07-13T02:53:54;16.40;99.90
27384;DHT22;14851;51.166;4.760;2023-07-13T02:56:25;16.40;99.90
27384;DHT22;14851;51.166;4.760;2023-07-13T02:58:51;16.40;99.90
27384;DHT22;14851;51.166;4.760;2023-07-13T03:01:18;16.40;99.90
27384;DHT22;14851;51.166;4.760;2023-07-13T03:03:46;16.40;99.90
27384;DHT22;14851;51.166;4.760;2023-07-13T03:06:13;16.40;99.90
27384;DHT22;14851;51.166;4.760;2023-07-13T03:08:47;16.40;99.90
27384;DHT22;14851;51.166;4.760;2023-07-13T03:11:19;16.40;99.90
27384;DHT22;14851;51.166;4.760;2023-07-13T03:13:51;16.40;99.90
27384;DHT22;14851;51.166;4.760;2023-07-13T03:16:19;16.40;99.90
27384;DHT22;14851;51.166;4.760;2023-07-13T03:18:49;16.40;99.90
27384;DHT22;14851;51.166;4.760;2023-07-13T03:21:17;16.50;99.90
27384;DHT22;14851;51.166;4.760;2023-07-13T03:23:43;16.50;99.90
27384;DHT22;14851;51.166;4.760;2023-07-13T03:26:12;16.50;99.90
27384;DHT22;14851;51.166;4.760;2023-07-13T03:28:40;16.50;99.90
27384;DHT22;14851;51.166;4.760;2023-07-13T03:31:20;16.50;99.90
27384;DHT22;14851;51.166;4.760;2023-07-13T03:33:47;16.50;99.90
27384;DHT22;14851;51.166;4.760;2023-07-13T03:36:17;16.50;99.90
27384;DHT22;14851;51.166;4.760;2023-07-13T03:38:50;16.50;99.90
27384;DHT22;14851;51.166;4.760;2023-07-13T03:41:21;16.50;99.90
27384;DHT22;14851;51.166;4.760;2023-07-13T03:43:49;16.50;99.90
27384;DHT22;14851;51.166;4.760;2023-07-13T03:46:17;16.50;99.90
27384;DHT22;14851;51.166;4.760;2023-07-13T03:48:45;16.50;99.90
27384;DHT22;14851;51.166;4.760;2023-07-13T03:51:12;16.50;99.90
27384;DHT22;14851;51.166;4.760;2023-07-13T03:53:42;16.50;99.90
27384;DHT22;14851;51.166;4.760;2023-07-13T03:56:10;16.50;99.90
27384;DHT22;14851;51.166;4.760;2023-07-13T03:58:40;16.50;99.90
27384;DHT22;14851;51.166;4.760;2023-07-13T04:01:16;16.50;99.90
27384;DHT22;14851;51.166;4.760;2023-07-13T04:03:44;16.60;99.90
27384;DHT22;14851;51.166;4.760;2023-07-13T04:06:16;16.50;99.90
27384;DHT22;14851;51.166;4.760;2023-07-13T04:08:51;16.50;99.90
27384;DHT22;14851;51.166;4.760;2023-07-13T04:11:19;16.50;99.90
27384;DHT22;14851;51.166;4.760;2023-07-13T04:13:46;16.50;99.90
27384;DHT22;14851;51.166;4.760;2023-07-13T04:16:15;16.50;99.90
27384;DHT22;14851;51.166;4.760;2023-07-13T04:18:44;16.60;99.90
27384;DHT22;14851;51.166;4.760;2023-07-13T04:21:14;16.60;99.90
27384;DHT22;14851;51.166;4.760;2023-07-13T04:23:40;16.50;99.90
27384;DHT22;14851;51.166;4.760;2023-07-13T04:26:06;16.60;99.90
27384;DHT22;14851;51.166;4.760;2023-07-13T04:28:33;16.60;99.90
27384;DHT22;14851;51.166;4.760;2023-07-13T04:30:59;16.50;99.90
27384;DHT22;14851;51.166;4.760;2023-07-13T04:33:26;16.60;99.90
27384;DHT22;14851;51.166;4.760;2023-07-13T04:35:54;16.60;99.90
27384;DHT22;14851;51.166;4.760;2023-07-13T04:38:31;16.60;99.90
27384;DHT22;14851;51.166;4.760;2023-07-13T04:41:01;16.60;99.90
27384;DHT22;14851;51.166;4.760;2023-07-13T04:43:29;16.60;99.90
27384;DHT22;14851;51.166;4.760;2023-07-13T04:45:55;16.60;99.90
27384;DHT22;14851;51.166;4.760;2023-07-13T04:48:22;16.60;99.90
27384;DHT22;14851;51.166;4.760;2023-07-13T04:50:53;16.60;99.90
27384;DHT22;14851;51.166;4.760;2023-07-13T04:53:19;16.60;99.90
27384;DHT22;14851;51.166;4.760;2023-07-13T04:55:45;16.70;99.90
27384;DHT22;14851;51.166;4.760;2023-07-13T04:58:11;16.70;99.90
27384;DHT22;14851;51.166;4.760;2023-07-13T05:00:37;16.70;99.90
27384;DHT22;14851;51.166;4.760;2023-07-13T05:03:05;16.70;99.90
27384;DHT22;14851;51.166;4.760;2023-07-13T05:05:31;16.70;99.90
27384;DHT22;14851;51.166;4.760;2023-07-13T05:07:59;16.70;99.90
27384;DHT22;14851;51.166;4.760;2023-07-13T05:10:27;16.70;99.90
27384;DHT22;14851;51.166;4.760;2023-07-13T05:12:57;16.70;99.90
27384;DHT22;14851;51.166;4.760;2023-07-13T05:15:28;16.70;99.90
27384;DHT22;14851;51.166;4.760;2023-07-13T05:17:54;16.80;99.90
27384;DHT22;14851;51.166;4.760;2023-07-13T05:20:22;16.80;99.90
27384;DHT22;14851;51.166;4.760;2023-07-13T05:22:48;16.80;99.90
27384;DHT22;14851;51.166;4.760;2023-07-13T05:25:14;16.80;99.90
27384;DHT22;14851;51.166;4.760;2023-07-13T05:27:40;16.80;99.90
27384;DHT22;14851;51.166;4.760;2023-07-13T05:30:11;16.90;99.90
27384;DHT22;14851;51.166;4.760;2023-07-13T05:32:37;16.90;99.90
27384;DHT22;14851;51.166;4.760;2023-07-13T05:35:04;16.90;99.90
27384;DHT22;14851;51.166;4.760;2023-07-13T05:37:31;16.90;99.90
27384;DHT22;14851;51.166;4.760;2023-07-13T05:39:57;17.00;99.90
27384;DHT22;14851;51.166;4.760;2023-07-13T05:42:22;17.00;99.90
27384;DHT22;14851;51.166;4.760;2023-07-13T05:44:48;17.00;99.90
27384;DHT22;14851;51.166;4.760;2023-07-13T05:47:15;17.10;99.90
27384;DHT22;14851;51.166;4.760;2023-07-13T05:49:43;17.20;99.90
27384;DHT22;14851;51.166;4.760;2023-07-13T05:52:09;17.10;99.90
27384;DHT22;14851;51.166;4.760;2023-07-13T05:54:37;17.10;99.90
27384;DHT22;14851;51.166;4.760;2023-07-13T05:57:03;17.20;99.90
27384;DHT22;14851;51.166;4.760;2023-07-13T05:59:29;17.10;99.90
27384;DHT22;14851;51.166;4.760;2023-07-13T06:01:55;17.20;99.90
27384;DHT22;14851;51.166;4.760;2023-07-13T06:04:21;17.20;99.90
27384;DHT22;14851;51.166;4.760;2023-07-13T06:06:47;17.20;99.90
27384;DHT22;14851;51.166;4.760;2023-07-13T06:09:24;17.20;99.90
27384;DHT22;14851;51.166;4.760;2023-07-13T06:12:10;17.20;99.90
27384;DHT22;14851;51.166;4.760;2023-07-13T06:14:38;17.20;99.90
27384;DHT22;14851;51.166;4.760;2023-07-13T06:17:04;17.20;99.90
27384;DHT22;14851;51.166;4.760;2023-07-13T06:19:31;17.20;99.90
27384;DHT22;14851;51.166;4.760;2023-07-13T06:22:00;17.30;99.90
27384;DHT22;14851;51.166;4.760;2023-07-13T06:24:26;17.30;99.90
27384;DHT22;14851;51.166;4.760;2023-07-13T06:26:52;17.30;99.90
27384;DHT22;14851;51.166;4.760;2023-07-13T06:29:18;17.30;99.90
27384;DHT22;14851;51.166;4.760;2023-07-13T06:31:44;17.40;99.90
27384;DHT22;14851;51.166;4.760;2023-07-13T06:34:10;17.40;99.90
27384;DHT22;14851;51.166;4.760;2023-07-13T06:36:35;17.40;99.90
27384;DHT22;14851;51.166;4.760;2023-07-13T06:39:03;17.40;99.90
27384;DHT22;14851;51.166;4.760;2023-07-13T06:41:29;17.40;99.90
27384;DHT22;14851;51.166;4.760;2023-07-13T06:43:57;17.40;99.90
27384;DHT22;14851;51.166;4.760;2023-07-13T06:46:23;17.50;99.90
27384;DHT22;14851;51.166;4.760;2023-07-13T06:48:51;17.50;99.90
27384;DHT22;14851;51.166;4.760;2023-07-13T06:51:17;17.50;99.90
27384;DHT22;14851;51.166;4.760;2023-07-13T06:53:43;17.50;99.90
27384;DHT22;14851;51.166;4.760;2023-07-13T06:56:13;17.60;99.90
27384;DHT22;14851;51.166;4.760;2023-07-13T06:58:38;17.60;99.90
27384;DHT22;14851;51.166;4.760;2023-07-13T07:01:05;17.70;99.90
27384;DHT22;14851;51.166;4.760;2023-07-13T07:03:31;17.70;99.90
27384;DHT22;14851;51.166;4.760;2023-07-13T07:06:18;17.70;99.90
27384;DHT22;14851;51.166;4.760;2023-07-13T07:08:44;17.80;99.90
27384;DHT22;14851;51.166;4.760;2023-07-13T07:11:18;17.80;99.90
27384;DHT22;14851;51.166;4.760;2023-07-13T07:13:45;17.80;99.90
27384;DHT22;14851;51.166;4.760;2023-07-13T07:16:14;17.80;99.90
27384;DHT22;14851;51.166;4.760;2023-07-13T07:18:41;17.80;99.90
27384;DHT22;14851;51.166;4.760;2023-07-13T07:21:08;17.80;99.90
27384;DHT22;14851;51.166;4.760;2023-07-13T07:23:35;17.80;99.90
27384;DHT22;14851;51.166;4.760;2023-07-13T07:26:01;17.80;99.90
27384;DHT22;14851;51.166;4.760;2023-07-13T07:28:27;17.80;99.90
27384;DHT22;14851;51.166;4.760;2023-07-13T07:30:57;17.90;99.90
27384;DHT22;14851;51.166;4.760;2023-07-13T07:33:24;17.90;99.90
27384;DHT22;14851;51.166;4.760;2023-07-13T07:35:51;17.90;99.90
27384;DHT22;14851;51.166;4.760;2023-07-13T07:38:17;18.10;99.90
27384;DHT22;14851;51.166;4.760;2023-07-13T07:40:45;18.10;99.90
27384;DHT22;14851;51.166;4.760;2023-07-13T07:43:14;18.10;99.90
27384;DHT22;14851;51.166;4.760;2023-07-13T07:45:40;18.20;99.90
27384;DHT22;14851;51.166;4.760;2023-07-13T07:48:07;18.20;99.90
27384;DHT22;14851;51.166;4.760;2023-07-13T07:50:35;18.20;99.90
27384;DHT22;14851;51.166;4.760;2023-07-13T07:53:01;18.30;99.90
27384;DHT22;14851;51.166;4.760;2023-07-13T07:55:28;18.30;99.90
27384;DHT22;14851;51.166;4.760;2023-07-13T07:57:56;18.30;99.90
27384;DHT22;14851;51.166;4.760;2023-07-13T08:00:22;18.30;99.90
27384;DHT22;14851;51.166;4.760;2023-07-13T08:02:47;18.40;99.90
27384;DHT22;14851;51.166;4.760;2023-07-13T08:05:16;18.40;99.90
27384;DHT22;14851;51.166;4.760;2023-07-13T08:07:42;18.40;99.90
27384;DHT22;14851;51.166;4.760;2023-07-13T08:10:08;18.40;99.90
27384;DHT22;14851;51.166;4.760;2023-07-13T08:12:35;18.40;99.90
27384;DHT22;14851;51.166;4.760;2023-07-13T08:15:03;18.40;99.90
27384;DHT22;14851;51.166;4.760;2023-07-13T08:17:29;18.50;99.90
27384;DHT22;14851;51.166;4.760;2023-07-13T08:19:55;18.50;99.90
27384;DHT22;14851;51.166;4.760;2023-07-13T08:22:21;18.50;99.90
27384;DHT22;14851;51.166;4.760;2023-07-13T08:24:47;18.50;99.90
27384;DHT22;14851;51.166;4.760;2023-07-13T08:27:21;18.60;99.90
27384;DHT22;14851;51.166;4.760;2023-07-13T08:29:50;18.60;99.90
27384;DHT22;14851;51.166;4.760;2023-07-13T08:32:18;18.60;99.90
27384;DHT22;14851;51.166;4.760;2023-07-13T08:34:44;18.60;99.90
27384;DHT22;14851;51.166;4.760;2023-07-13T08:37:10;18.80;99.90
27384;DHT22;14851;51.166;4.760;2023-07-13T08:39:39;18.90;99.90
27384;DHT22;14851;51.166;4.760;2023-07-13T08:42:36;18.90;99.90
27384;DHT22;14851;51.166;4.760;2023-07-13T08:47:32;18.90;99.90
27384;DHT22;14851;51.166;4.760;2023-07-13T08:50:01;18.90;99.90
27384;DHT22;14851;51.166;4.760;2023-07-13T08:52:39;18.90;99.90
27384;DHT22;14851;51.166;4.760;2023-07-13T08:55:16;19.00;99.90
27384;DHT22;14851;51.166;4.760;2023-07-13T08:57:48;19.10;99.90
27384;DHT22;14851;51.166;4.760;2023-07-13T09:00:17;19.00;99.90
27384;DHT22;14851;51.166;4.760;2023-07-13T09:02:52;19.10;99.90
27384;DHT22;14851;51.166;4.760;2023-07-13T09:10:48;19.40;99.90
27384;DHT22;14851;51.166;4.760;2023-07-13T09:15:49;19.50;99.90
27384;DHT22;14851;51.166;4.760;2023-07-13T09:18:18;19.50;99.90
27384;DHT22;14851;51.166;4.760;2023-07-13T09:20:50;19.60;99.90
27384;DHT22;14851;51.166;4.760;2023-07-13T09:23:20;19.60;99.90
27384;DHT22;14851;51.166;4.760;2023-07-13T09:25:54;19.60;99.90
27384;DHT22;14851;51.166;4.760;2023-07-13T09:28:27;19.60;99.90
27384;DHT22;14851;51.166;4.760;2023-07-13T09:31:16;19.70;99.90
27384;DHT22;14851;51.166;4.760;2023-07-13T09:33:44;19.70;99.90
27384;DHT22;14851;51.166;4.760;2023-07-13T09:36:32;19.70;99.90
27384;DHT22;14851;51.166;4.760;2023-07-13T09:39:14;19.70;99.90
27384;DHT22;14851;51.166;4.760;2023-07-13T09:42:00;19.70;99.90
27384;DHT22;14851;51.166;4.760;2023-07-13T09:44:39;19.70;99.90
27384;DHT22;14851;51.166;4.760;2023-07-13T09:50:08;19.60;99.90
27384;DHT22;14851;51.166;4.760;2023-07-13T09:52:46;19.60;99.90
27384;DHT22;14851;51.166;4.760;2023-07-13T09:55:26;19.60;99.90
27384;DHT22;14851;51.166;4.760;2023-07-13T09:57:52;19.70;99.90
27384;DHT22;14851;51.166;4.760;2023-07-13T10:00:28;19.70;99.90
27384;DHT22;14851;51.166;4.760;2023-07-13T10:03:05;19.80;99.90
27384;DHT22;14851;51.166;4.760;2023-07-13T10:05:39;19.90;99.90
27384;DHT22;14851;51.166;4.760;2023-07-13T10:08:05;20.00;99.90
27384;DHT22;14851;51.166;4.760;2023-07-13T10:10:33;20.10;99.90
27384;DHT22;14851;51.166;4.760;2023-07-13T10:12:59;20.30;99.90
27384;DHT22;14851;51.166;4.760;2023-07-13T10:15:28;20.40;99.90
27384;DHT22;14851;51.166;4.760;2023-07-13T10:17:55;20.50;99.90
27384;DHT22;14851;51.166;4.760;2023-07-13T10:20:24;20.50;99.90
27384;DHT22;14851;51.166;4.760;2023-07-13T10:22:53;20.50;99.90
27384;DHT22;14851;51.166;4.760;2023-07-13T10:25:24;20.40;99.90
27384;DHT22;14851;51.166;4.760;2023-07-13T10:27:53;20.40;99.90
27384;DHT22;14851;51.166;4.760;2023-07-13T10:30:28;20.40;99.90
27384;DHT22;14851;51.166;4.760;2023-07-13T10:32:58;20.40;99.90
27384;DHT22;14851;51.166;4.760;2023-07-13T10:35:26;20.40;99.90
27384;DHT22;14851;51.166;4.760;2023-07-13T10:38:06;20.40;99.90
27384;DHT22;14851;51.166;4.760;2023-07-13T10:41:01;20.40;99.90
27384;DHT22;14851;51.166;4.760;2023-07-13T10:43:40;20.60;99.90
27384;DHT22;14851;51.166;4.760;2023-07-13T10:46:10;20.60;99.90
27384;DHT22;14851;51.166;4.760;2023-07-13T10:48:40;20.60;99.90
27384;DHT22;14851;51.166;4.760;2023-07-13T10:51:08;20.60;99.90
27384;DHT22;14851;51.166;4.760;2023-07-13T10:53:39;20.60;99.90
27384;DHT22;14851;51.166;4.760;2023-07-13T10:58:41;20.50;99.90
27384;DHT22;14851;51.166;4.760;2023-07-13T11:01:12;20.50;99.90
27384;DHT22;14851;51.166;4.760;2023-07-13T11:04:02;20.40;99.90
27384;DHT22;14851;51.166;4.760;2023-07-13T11:11:50;20.40;99.90
27384;DHT22;14851;51.166;4.760;2023-07-13T11:16:55;20.30;99.90
27384;DHT22;14851;51.166;4.760;2023-07-13T11:24:50;20.50;99.90
27384;DHT22;14851;51.166;4.760;2023-07-13T11:27:42;20.50;99.90
27384;DHT22;14851;51.166;4.760;2023-07-13T11:30:23;20.60;99.90
27384;DHT22;14851;51.166;4.760;2023-07-13T11:35:51;20.90;99.90
27384;DHT22;14851;51.166;4.760;2023-07-13T11:38:22;20.90;99.90
27384;DHT22;14851;51.166;4.760;2023-07-13T11:40:54;20.90;99.90
27384;DHT22;14851;51.166;4.760;2023-07-13T11:43:20;20.90;99.90
27384;DHT22;14851;51.166;4.760;2023-07-13T11:45:49;20.90;99.90
27384;DHT22;14851;51.166;4.760;2023-07-13T11:51:01;21.00;99.90
27384;DHT22;14851;51.166;4.760;2023-07-13T11:53:40;21.00;99.90
27384;DHT22;14851;51.166;4.760;2023-07-13T11:56:07;21.00;99.90
27384;DHT22;14851;51.166;4.760;2023-07-13T11:58:33;20.90;99.90
27384;DHT22;14851;51.166;4.760;2023-07-13T12:01:01;21.00;99.90
27384;DHT22;14851;51.166;4.760;2023-07-13T12:03:30;21.00;99.90
27384;DHT22;14851;51.166;4.760;2023-07-13T12:06:05;20.90;99.90
27384;DHT22;14851;51.166;4.760;2023-07-13T12:08:39;20.90;99.90
27384;DHT22;14851;51.166;4.760;2023-07-13T12:11:16;21.00;99.90
27384;DHT22;14851;51.166;4.760;2023-07-13T12:13:44;21.00;99.90
27384;DHT22;14851;51.166;4.760;2023-07-13T12:16:17;20.90;99.90
27384;DHT22;14851;51.166;4.760;2023-07-13T12:18:48;20.70;99.90
27384;DHT22;14851;51.166;4.760;2023-07-13T12:21:18;20.60;99.90
27384;DHT22;14851;51.166;4.760;2023-07-13T12:23:48;20.50;99.90
27384;DHT22;14851;51.166;4.760;2023-07-13T12:26:15;20.30;99.90
27384;DHT22;14851;51.166;4.760;2023-07-13T12:28:48;20.10;99.90
27384;DHT22;14851;51.166;4.760;2023-07-13T12:31:37;19.90;99.90
27384;DHT22;14851;51.166;4.760;2023-07-13T12:36:38;19.60;99.90
27384;DHT22;14851;51.166;4.760;2023-07-13T12:39:16;19.60;99.90
27384;DHT22;14851;51.166;4.760;2023-07-13T12:41:48;19.50;99.90
27384;DHT22;14851;51.166;4.760;2023-07-13T12:44:40;19.40;99.90
27384;DHT22;14851;51.166;4.760;2023-07-13T12:47:12;19.50;99.90
27384;DHT22;14851;51.166;4.760;2023-07-13T12:50:02;19.50;99.90
27384;DHT22;14851;51.166;4.760;2023-07-13T12:52:35;19.50;99.90
27384;DHT22;14851;51.166;4.760;2023-07-13T12:55:12;19.50;99.90
27384;DHT22;14851;51.166;4.760;2023-07-13T12:57:53;19.50;99.90
27384;DHT22;14851;51.166;4.760;2023-07-13T13:00:23;19.40;99.90
27384;DHT22;14851;51.166;4.760;2023-07-13T13:02:57;19.40;99.90
27384;DHT22;14851;51.166;4.760;2023-07-13T13:05:26;19.40;99.90
27384;DHT22;14851;51.166;4.760;2023-07-13T13:07:52;19.40;99.90
27384;DHT22;14851;51.166;4.760;2023-07-13T13:10:18;19.40;99.90
27384;DHT22;14851;51.166;4.760;2023-07-13T13:12:46;19.40;99.90
27384;DHT22;14851;51.166;4.760;2023-07-13T13:15:17;19.40;99.90
27384;DHT22;14851;51.166;4.760;2023-07-13T13:17:43;19.40;99.90
27384;DHT22;14851;51.166;4.760;2023-07-13T13:20:18;19.40;99.90
27384;DHT22;14851;51.166;4.760;2023-07-13T13:22:47;19.40;99.90
27384;DHT22;14851;51.166;4.760;2023-07-13T13:25:14;19.40;99.90
27384;DHT22;14851;51.166;4.760;2023-07-13T13:27:46;19.40;99.90
27384;DHT22;14851;51.166;4.760;2023-07-13T13:30:18;19.50;99.90
27384;DHT22;14851;51.166;4.760;2023-07-13T13:32:48;19.60;99.90
27384;DHT22;14851;51.166;4.760;2023-07-13T13:35:16;19.70;99.90
27384;DHT22;14851;51.166;4.760;2023-07-13T13:37:45;19.90;99.90
27384;DHT22;14851;51.166;4.760;2023-07-13T13:40:20;20.00;99.90
27384;DHT22;14851;51.166;4.760;2023-07-13T13:42:49;20.10;99.90
27384;DHT22;14851;51.166;4.760;2023-07-13T13:45:16;20.20;99.90
27384;DHT22;14851;51.166;4.760;2023-07-13T13:47:44;20.30;99.90
27384;DHT22;14851;51.166;4.760;2023-07-13T13:50:15;20.40;99.90
27384;DHT22;14851;51.166;4.760;2023-07-13T13:52:42;20.40;99.90
27384;DHT22;14851;51.166;4.760;2023-07-13T13:55:13;20.50;99.90
27384;DHT22;14851;51.166;4.760;2023-07-13T13:57:39;20.50;99.90
27384;DHT22;14851;51.166;4.760;2023-07-13T14:00:11;20.50;99.90
27384;DHT22;14851;51.166;4.760;2023-07-13T14:02:41;20.60;99.90
27384;DHT22;14851;51.166;4.760;2023-07-13T14:05:13;20.70;99.90
27384;DHT22;14851;51.166;4.760;2023-07-13T14:07:40;20.70;99.90
27384;DHT22;14851;51.166;4.760;2023-07-13T14:10:14;20.80;99.90
27384;DHT22;14851;51.166;4.760;2023-07-13T14:12:41;20.80;99.90
27384;DHT22;14851;51.166;4.760;2023-07-13T14:15:27;20.90;99.90
27384;DHT22;14851;51.166;4.760;2023-07-13T14:17:54;20.90;99.90
27384;DHT22;14851;51.166;4.760;2023-07-13T14:20:22;20.90;99.90
27384;DHT22;14851;51.166;4.760;2023-07-13T14:22:52;21.00;99.90
27384;DHT22;14851;51.166;4.760;2023-07-13T14:25:21;21.00;99.90
27384;DHT22;14851;51.166;4.760;2023-07-13T14:27:55;21.00;99.90
27384;DHT22;14851;51.166;4.760;2023-07-13T14:30:25;21.00;99.90
27384;DHT22;14851;51.166;4.760;2023-07-13T14:32:55;21.10;99.90
27384;DHT22;14851;51.166;4.760;2023-07-13T14:35:25;21.10;99.90
27384;DHT22;14851;51.166;4.760;2023-07-13T14:37:54;21.20;99.90
27384;DHT22;14851;51.166;4.760;2023-07-13T14:40:28;21.20;99.90
27384;DHT22;14851;51.166;4.760;2023-07-13T14:42:54;21.20;99.90
27384;DHT22;14851;51.166;4.760;2023-07-13T14:45:26;21.20;99.90
27384;DHT22;14851;51.166;4.760;2023-07-13T14:47:52;21.20;99.90
27384;DHT22;14851;51.166;4.760;2023-07-13T14:50:20;21.20;99.90
27384;DHT22;14851;51.166;4.760;2023-07-13T14:52:49;21.20;99.90
27384;DHT22;14851;51.166;4.760;2023-07-13T14:55:19;21.20;99.90
27384;DHT22;14851;51.166;4.760;2023-07-13T14:57:45;21.20;99.90
27384;DHT22;14851;51.166;4.760;2023-07-13T15:00:22;21.30;99.90
27384;DHT22;14851;51.166;4.760;2023-07-13T15:02:55;21.30;99.90
27384;DHT22;14851;51.166;4.760;2023-07-13T15:05:28;21.40;99.90
27384;DHT22;14851;51.166;4.760;2023-07-13T15:08:01;21.50;99.90
27384;DHT22;14851;51.166;4.760;2023-07-13T15:10:30;21.60;99.90
27384;DHT22;14851;51.166;4.760;2023-07-13T15:13:14;21.80;99.90
27384;DHT22;14851;51.166;4.760;2023-07-13T15:15:41;21.80;99.90
27384;DHT22;14851;51.166;4.760;2023-07-13T15:18:16;22.00;99.90
27384;DHT22;14851;51.166;4.760;2023-07-13T15:20:44;22.10;99.90
27384;DHT22;14851;51.166;4.760;2023-07-13T15:23:12;22.20;99.90
27384;DHT22;14851;51.166;4.760;2023-07-13T15:25:42;22.20;99.90
27384;DHT22;14851;51.166;4.760;2023-07-13T15:28:09;22.10;99.90
27384;DHT22;14851;51.166;4.760;2023-07-13T15:30:44;22.10;99.90
27384;DHT22;14851;51.166;4.760;2023-07-13T15:33:26;22.10;99.90
27384;DHT22;14851;51.166;4.760;2023-07-13T15:35:54;22.20;99.90
27384;DHT22;14851;51.166;4.760;2023-07-13T15:38:30;22.20;99.90
27384;DHT22;14851;51.166;4.760;2023-07-13T15:40:57;22.10;99.90
27384;DHT22;14851;51.166;4.760;2023-07-13T15:43:23;22.10;99.90
27384;DHT22;14851;51.166;4.760;2023-07-13T15:45:49;22.20;99.90
27384;DHT22;14851;51.166;4.760;2023-07-13T15:48:22;22.20;99.90
27384;DHT22;14851;51.166;4.760;2023-07-13T15:51:00;22.20;99.90
27384;DHT22;14851;51.166;4.760;2023-07-13T15:53:30;22.20;99.90
27384;DHT22;14851;51.166;4.760;2023-07-13T15:55:57;22.20;99.90
27384;DHT22;14851;51.166;4.760;2023-07-13T15:58:24;22.20;99.90
27384;DHT22;14851;51.166;4.760;2023-07-13T16:00:50;22.30;99.90
27384;DHT22;14851;51.166;4.760;2023-07-13T16:03:21;22.30;99.90
27384;DHT22;14851;51.166;4.760;2023-07-13T16:05:50;22.30;99.90
27384;DHT22;14851;51.166;4.760;2023-07-13T16:10:45;22.20;99.90
27384;DHT22;14851;51.166;4.760;2023-07-13T16:13:16;22.20;99.90
27384;DHT22;14851;51.166;4.760;2023-07-13T16:15:47;22.20;99.90
27384;DHT22;14851;51.166;4.760;2023-07-13T16:18:14;22.20;99.90
27384;DHT22;14851;51.166;4.760;2023-07-13T16:20:45;22.20;99.90
27384;DHT22;14851;51.166;4.760;2023-07-13T16:23:13;22.20;99.90
27384;DHT22;14851;51.166;4.760;2023-07-13T16:25:40;22.20;99.90
27384;DHT22;14851;51.166;4.760;2023-07-13T16:28:08;22.20;99.90